sensor_id;sensor_type;location;lat;lon;timestamp;P1;durP1;ratioP1;P2;durP2;ratioP2
151;SDS011;68;48.792;9.164;2024-02-14T00:00:19;18.23;;;17.13;;
151;SDS011;68;48.792;9.164;2024-02-14T00:02:46;18.15;;;16.75;;
151;SDS011;68;48.792;9.164;2024-02-14T00:05:14;19.13;;;16.67;;
151;SDS011;68;48.792;9.164;2024-02-14T00:07:41;17.73;;;16.83;;
151;SDS011;68;48.792;9.164;2024-02-14T00:10:10;17.65;;;16.75;;
151;SDS011;68;48.792;9.164;2024-02-14T00:12:36;17.73;;;16.83;;
151;SDS011;68;48.792;9.164;2024-02-14T00:15:04;16.60;;;15.80;;
151;SDS011;68;48.792;9.164;2024-02-14T00:17:32;17.05;;;16.15;;
151;SDS011;68;48.792;9.164;2024-02-14T00:19:59;17.55;;;16.52;;
151;SDS011;68;48.792;9.164;2024-02-14T00:22:26;17.52;;;15.98;;
151;SDS011;68;48.792;9.164;2024-02-14T00:24:53;18.13;;;16.05;;
151;SDS011;68;48.792;9.164;2024-02-14T00:27:21;17.70;;;16.20;;
151;SDS011;68;48.792;9.164;2024-02-14T00:29:49;16.65;;;15.85;;
151;SDS011;68;48.792;9.164;2024-02-14T00:32:16;18.70;;;15.38;;
151;SDS011;68;48.792;9.164;2024-02-14T00:34:42;16.55;;;15.75;;
151;SDS011;68;48.792;9.164;2024-02-14T00:37:10;17.25;;;16.35;;
151;SDS011;68;48.792;9.164;2024-02-14T00:39:37;21.17;;;15.70;;
151;SDS011;68;48.792;9.164;2024-02-14T00:42:04;16.20;;;15.43;;
151;SDS011;68;48.792;9.164;2024-02-14T00:44:32;16.15;;;15.35;;
151;SDS011;68;48.792;9.164;2024-02-14T00:46:59;17.17;;;15.68;;
151;SDS011;68;48.792;9.164;2024-02-14T00:49:27;16.80;;;15.90;;
151;SDS011;68;48.792;9.164;2024-02-14T00:51:54;17.27;;;16.30;;
151;SDS011;68;48.792;9.164;2024-02-14T00:54:21;16.80;;;16.00;;
151;SDS011;68;48.792;9.164;2024-02-14T00:56:48;16.65;;;15.85;;
151;SDS011;68;48.792;9.164;2024-02-14T00:59:14;17.10;;;16.20;;
151;SDS011;68;48.792;9.164;2024-02-14T01:01:43;16.60;;;15.80;;
151;SDS011;68;48.792;9.164;2024-02-14T01:04:10;18.40;;;15.73;;
151;SDS011;68;48.792;9.164;2024-02-14T01:06:36;17.30;;;16.40;;
151;SDS011;68;48.792;9.164;2024-02-14T01:09:03;17.63;;;16.73;;
151;SDS011;68;48.792;9.164;2024-02-14T01:11:30;16.42;;;15.63;;
151;SDS011;68;48.792;9.164;2024-02-14T01:13:56;19.92;;;16.45;;
151;SDS011;68;48.792;9.164;2024-02-14T01:16:24;18.30;;;16.80;;
151;SDS011;68;48.792;9.164;2024-02-14T01:18:52;18.80;;;15.20;;
151;SDS011;68;48.792;9.164;2024-02-14T01:21:19;20.85;;;15.90;;
151;SDS011;68;48.792;9.164;2024-02-14T01:23:46;16.00;;;15.23;;
151;SDS011;68;48.792;9.164;2024-02-14T01:26:13;19.08;;;16.10;;
151;SDS011;68;48.792;9.164;2024-02-14T01:28:40;19.55;;;16.05;;
151;SDS011;68;48.792;9.164;2024-02-14T01:31:09;17.15;;;15.90;;
151;SDS011;68;48.792;9.164;2024-02-14T01:33:37;16.52;;;15.20;;
151;SDS011;68;48.792;9.164;2024-02-14T01:36:06;18.48;;;16.00;;
151;SDS011;68;48.792;9.164;2024-02-14T01:38:33;17.15;;;15.35;;
151;SDS011;68;48.792;9.164;2024-02-14T01:41:00;15.80;;;15.00;;
151;SDS011;68;48.792;9.164;2024-02-14T01:43:28;16.23;;;15.43;;
151;SDS011;68;48.792;9.164;2024-02-14T01:45:55;16.25;;;15.45;;
151;SDS011;68;48.792;9.164;2024-02-14T01:48:29;16.88;;;15.85;;
151;SDS011;68;48.792;9.164;2024-02-14T01:50:56;17.02;;;15.90;;
151;SDS011;68;48.792;9.164;2024-02-14T01:53:25;16.27;;;15.48;;
151;SDS011;68;48.792;9.164;2024-02-14T01:55:55;16.92;;;16.02;;
151;SDS011;68;48.792;9.164;2024-02-14T01:58:22;19.88;;;15.77;;
151;SDS011;68;48.792;9.164;2024-02-14T02:00:49;17.67;;;15.90;;
151;SDS011;68;48.792;9.164;2024-02-14T02:03:20;17.45;;;15.07;;
151;SDS011;68;48.792;9.164;2024-02-14T02:05:48;18.73;;;15.63;;
151;SDS011;68;48.792;9.164;2024-02-14T02:08:15;19.20;;;15.90;;
151;SDS011;68;48.792;9.164;2024-02-14T02:10:43;18.50;;;15.32;;
151;SDS011;68;48.792;9.164;2024-02-14T02:13:10;18.73;;;16.02;;
151;SDS011;68;48.792;9.164;2024-02-14T02:15:37;18.20;;;16.17;;
151;SDS011;68;48.792;9.164;2024-02-14T02:18:04;16.00;;;15.20;;
151;SDS011;68;48.792;9.164;2024-02-14T02:20:31;18.92;;;15.55;;
151;SDS011;68;48.792;9.164;2024-02-14T02:23:00;18.13;;;14.70;;
151;SDS011;68;48.792;9.164;2024-02-14T02:25:26;17.08;;;15.48;;
151;SDS011;68;48.792;9.164;2024-02-14T02:27:54;20.83;;;16.10;;
151;SDS011;68;48.792;9.164;2024-02-14T02:30:21;18.35;;;15.30;;
151;SDS011;68;48.792;9.164;2024-02-14T02:32:49;16.20;;;15.40;;
151;SDS011;68;48.792;9.164;2024-02-14T02:35:16;17.63;;;15.32;;
151;SDS011;68;48.792;9.164;2024-02-14T02:37:46;16.38;;;15.57;;
151;SDS011;68;48.792;9.164;2024-02-14T02:40:16;15.90;;;15.10;;
151;SDS011;68;48.792;9.164;2024-02-14T02:42:43;17.60;;;15.48;;
151;SDS011;68;48.792;9.164;2024-02-14T02:45:10;22.38;;;16.45;;
151;SDS011;68;48.792;9.164;2024-02-14T02:47:37;16.35;;;15.52;;
151;SDS011;68;48.792;9.164;2024-02-14T02:50:05;16.52;;;15.70;;
151;SDS011;68;48.792;9.164;2024-02-14T02:52:33;16.65;;;15.85;;
151;SDS011;68;48.792;9.164;2024-02-14T02:54:59;17.00;;;16.10;;
151;SDS011;68;48.792;9.164;2024-02-14T02:57:28;16.92;;;15.55;;
151;SDS011;68;48.792;9.164;2024-02-14T02:59:57;16.73;;;15.90;;
151;SDS011;68;48.792;9.164;2024-02-14T03:02:24;16.55;;;15.75;;
151;SDS011;68;48.792;9.164;2024-02-14T03:04:51;17.40;;;16.10;;
151;SDS011;68;48.792;9.164;2024-02-14T03:07:18;18.35;;;16.77;;
151;SDS011;68;48.792;9.164;2024-02-14T03:09:45;22.98;;;16.17;;
151;SDS011;68;48.792;9.164;2024-02-14T03:12:12;17.00;;;16.08;;
151;SDS011;68;48.792;9.164;2024-02-14T03:14:42;18.88;;;16.83;;
151;SDS011;68;48.792;9.164;2024-02-14T03:17:09;21.45;;;17.30;;
151;SDS011;68;48.792;9.164;2024-02-14T03:19:36;16.77;;;15.90;;
151;SDS011;68;48.792;9.164;2024-02-14T03:22:04;17.73;;;16.80;;
151;SDS011;68;48.792;9.164;2024-02-14T03:24:33;17.23;;;16.35;;
151;SDS011;68;48.792;9.164;2024-02-14T03:27:02;18.13;;;16.38;;
151;SDS011;68;48.792;9.164;2024-02-14T03:29:30;19.77;;;15.55;;
151;SDS011;68;48.792;9.164;2024-02-14T03:31:58;22.30;;;16.25;;
151;SDS011;68;48.792;9.164;2024-02-14T03:34:29;17.50;;;16.60;;
151;SDS011;68;48.792;9.164;2024-02-14T03:36:58;15.98;;;15.18;;
151;SDS011;68;48.792;9.164;2024-02-14T03:39:26;17.23;;;16.17;;
151;SDS011;68;48.792;9.164;2024-02-14T03:41:53;16.02;;;15.23;;
151;SDS011;68;48.792;9.164;2024-02-14T03:44:21;16.48;;;15.68;;
151;SDS011;68;48.792;9.164;2024-02-14T03:46:48;18.23;;;16.35;;
151;SDS011;68;48.792;9.164;2024-02-14T03:49:16;18.60;;;16.70;;
151;SDS011;68;48.792;9.164;2024-02-14T03:51:43;19.02;;;15.85;;
151;SDS011;68;48.792;9.164;2024-02-14T03:54:10;19.05;;;16.02;;
151;SDS011;68;48.792;9.164;2024-02-14T03:56:37;18.23;;;16.15;;
151;SDS011;68;48.792;9.164;2024-02-14T03:59:04;16.75;;;15.93;;
151;SDS011;68;48.792;9.164;2024-02-14T04:01:32;16.70;;;15.73;;
151;SDS011;68;48.792;9.164;2024-02-14T04:03:59;16.55;;;15.75;;
151;SDS011;68;48.792;9.164;2024-02-14T04:06:27;19.42;;;16.05;;
151;SDS011;68;48.792;9.164;2024-02-14T04:08:56;16.52;;;15.65;;
151;SDS011;68;48.792;9.164;2024-02-14T04:11:24;17.00;;;16.10;;
151;SDS011;68;48.792;9.164;2024-02-14T04:13:50;17.50;;;16.60;;
151;SDS011;68;48.792;9.164;2024-02-14T04:16:18;21.75;;;17.58;;
151;SDS011;68;48.792;9.164;2024-02-14T04:18:46;19.15;;;16.23;;
151;SDS011;68;48.792;9.164;2024-02-14T04:21:13;18.00;;;16.83;;
151;SDS011;68;48.792;9.164;2024-02-14T04:23:41;17.65;;;16.23;;
151;SDS011;68;48.792;9.164;2024-02-14T04:26:08;16.95;;;15.95;;
151;SDS011;68;48.792;9.164;2024-02-14T04:28:35;16.48;;;15.50;;
151;SDS011;68;48.792;9.164;2024-02-14T04:31:02;18.50;;;15.98;;
151;SDS011;68;48.792;9.164;2024-02-14T04:33:28;16.33;;;15.52;;
151;SDS011;68;48.792;9.164;2024-02-14T04:35:55;16.75;;;15.93;;
151;SDS011;68;48.792;9.164;2024-02-14T04:38:22;15.80;;;15.00;;
151;SDS011;68;48.792;9.164;2024-02-14T04:40:50;16.23;;;15.50;;
151;SDS011;68;48.792;9.164;2024-02-14T04:43:17;17.30;;;15.63;;
151;SDS011;68;48.792;9.164;2024-02-14T04:45:44;16.48;;;15.68;;
151;SDS011;68;48.792;9.164;2024-02-14T04:48:11;18.40;;;15.70;;
151;SDS011;68;48.792;9.164;2024-02-14T04:50:38;17.55;;;15.30;;
151;SDS011;68;48.792;9.164;2024-02-14T04:53:05;15.70;;;14.90;;
151;SDS011;68;48.792;9.164;2024-02-14T04:55:32;16.02;;;15.25;;
151;SDS011;68;48.792;9.164;2024-02-14T04:58:00;21.95;;;15.18;;
151;SDS011;68;48.792;9.164;2024-02-14T05:00:27;16.33;;;15.52;;
151;SDS011;68;48.792;9.164;2024-02-14T05:02:54;19.50;;;15.30;;
151;SDS011;68;48.792;9.164;2024-02-14T05:05:22;17.90;;;15.23;;
151;SDS011;68;48.792;9.164;2024-02-14T05:07:49;16.50;;;14.95;;
151;SDS011;68;48.792;9.164;2024-02-14T05:10:15;17.88;;;14.60;;
151;SDS011;68;48.792;9.164;2024-02-14T05:12:42;15.82;;;15.02;;
151;SDS011;68;48.792;9.164;2024-02-14T05:15:10;15.63;;;14.82;;
151;SDS011;68;48.792;9.164;2024-02-14T05:17:37;15.40;;;14.60;;
151;SDS011;68;48.792;9.164;2024-02-14T05:20:05;16.80;;;15.70;;
151;SDS011;68;48.792;9.164;2024-02-14T05:22:34;16.38;;;15.57;;
151;SDS011;68;48.792;9.164;2024-02-14T05:25:01;19.33;;;17.00;;
151;SDS011;68;48.792;9.164;2024-02-14T05:27:29;22.30;;;17.08;;
151;SDS011;68;48.792;9.164;2024-02-14T05:29:55;18.77;;;15.90;;
151;SDS011;68;48.792;9.164;2024-02-14T05:32:24;16.33;;;15.52;;
151;SDS011;68;48.792;9.164;2024-02-14T05:34:50;18.35;;;16.58;;
151;SDS011;68;48.792;9.164;2024-02-14T05:37:17;16.48;;;15.18;;
151;SDS011;68;48.792;9.164;2024-02-14T05:39:44;15.77;;;14.98;;
151;SDS011;68;48.792;9.164;2024-02-14T05:42:11;16.67;;;15.88;;
151;SDS011;68;48.792;9.164;2024-02-14T05:44:38;16.25;;;15.43;;
151;SDS011;68;48.792;9.164;2024-02-14T05:47:05;15.95;;;15.15;;
151;SDS011;68;48.792;9.164;2024-02-14T05:49:33;16.40;;;15.60;;
151;SDS011;68;48.792;9.164;2024-02-14T05:52:00;17.23;;;15.07;;
151;SDS011;68;48.792;9.164;2024-02-14T05:54:27;16.13;;;15.32;;
151;SDS011;68;48.792;9.164;2024-02-14T05:56:53;15.75;;;14.95;;
151;SDS011;68;48.792;9.164;2024-02-14T05:59:22;17.23;;;14.90;;
151;SDS011;68;48.792;9.164;2024-02-14T06:01:49;15.75;;;14.95;;
151;SDS011;68;48.792;9.164;2024-02-14T06:04:16;16.27;;;15.52;;
151;SDS011;68;48.792;9.164;2024-02-14T06:06:44;15.75;;;14.80;;
151;SDS011;68;48.792;9.164;2024-02-14T06:09:11;15.80;;;15.00;;
151;SDS011;68;48.792;9.164;2024-02-14T06:11:38;15.73;;;14.63;;
151;SDS011;68;48.792;9.164;2024-02-14T06:14:04;15.68;;;14.88;;
151;SDS011;68;48.792;9.164;2024-02-14T06:16:31;15.70;;;14.90;;
151;SDS011;68;48.792;9.164;2024-02-14T06:18:58;18.13;;;14.30;;
151;SDS011;68;48.792;9.164;2024-02-14T06:21:25;16.88;;;15.02;;
151;SDS011;68;48.792;9.164;2024-02-14T06:23:54;16.50;;;14.55;;
151;SDS011;68;48.792;9.164;2024-02-14T06:26:20;16.17;;;15.35;;
151;SDS011;68;48.792;9.164;2024-02-14T06:28:47;15.45;;;14.65;;
151;SDS011;68;48.792;9.164;2024-02-14T06:31:19;16.38;;;15.32;;
151;SDS011;68;48.792;9.164;2024-02-14T06:33:46;15.73;;;14.93;;
151;SDS011;68;48.792;9.164;2024-02-14T06:36:12;20.92;;;15.30;;
151;SDS011;68;48.792;9.164;2024-02-14T06:38:39;16.60;;;15.80;;
151;SDS011;68;48.792;9.164;2024-02-14T06:41:07;15.75;;;14.95;;
151;SDS011;68;48.792;9.164;2024-02-14T06:43:34;16.42;;;15.63;;
151;SDS011;68;48.792;9.164;2024-02-14T06:46:03;16.55;;;15.68;;
151;SDS011;68;48.792;9.164;2024-02-14T06:48:30;16.35;;;14.73;;
151;SDS011;68;48.792;9.164;2024-02-14T06:50:56;16.70;;;14.80;;
151;SDS011;68;48.792;9.164;2024-02-14T06:53:23;15.68;;;14.88;;
151;SDS011;68;48.792;9.164;2024-02-14T06:55:50;17.95;;;16.25;;
151;SDS011;68;48.792;9.164;2024-02-14T06:58:18;16.45;;;15.65;;
151;SDS011;68;48.792;9.164;2024-02-14T07:00:45;15.35;;;14.55;;
151;SDS011;68;48.792;9.164;2024-02-14T07:03:12;15.45;;;14.65;;
151;SDS011;68;48.792;9.164;2024-02-14T07:05:39;16.40;;;14.73;;
151;SDS011;68;48.792;9.164;2024-02-14T07:08:06;15.93;;;14.75;;
151;SDS011;68;48.792;9.164;2024-02-14T07:10:33;21.05;;;15.20;;
151;SDS011;68;48.792;9.164;2024-02-14T07:13:00;15.38;;;14.57;;
151;SDS011;68;48.792;9.164;2024-02-14T07:15:28;16.45;;;15.02;;
151;SDS011;68;48.792;9.164;2024-02-14T07:17:55;15.48;;;14.68;;
151;SDS011;68;48.792;9.164;2024-02-14T07:20:23;16.52;;;15.73;;
151;SDS011;68;48.792;9.164;2024-02-14T07:22:51;16.38;;;14.70;;
151;SDS011;68;48.792;9.164;2024-02-14T07:25:19;16.80;;;15.32;;
151;SDS011;68;48.792;9.164;2024-02-14T07:27:46;18.30;;;14.80;;
151;SDS011;68;48.792;9.164;2024-02-14T07:30:14;16.33;;;15.52;;
151;SDS011;68;48.792;9.164;2024-02-14T07:32:43;16.15;;;15.38;;
151;SDS011;68;48.792;9.164;2024-02-14T07:35:10;15.88;;;14.75;;
151;SDS011;68;48.792;9.164;2024-02-14T07:37:38;21.10;;;15.40;;
151;SDS011;68;48.792;9.164;2024-02-14T07:40:05;16.00;;;15.20;;
151;SDS011;68;48.792;9.164;2024-02-14T07:42:33;17.52;;;14.85;;
151;SDS011;68;48.792;9.164;2024-02-14T07:44:59;15.40;;;14.60;;
151;SDS011;68;48.792;9.164;2024-02-14T07:47:28;15.60;;;14.80;;
151;SDS011;68;48.792;9.164;2024-02-14T07:49:56;27.73;;;15.95;;
151;SDS011;68;48.792;9.164;2024-02-14T07:52:23;20.67;;;15.40;;
151;SDS011;68;48.792;9.164;2024-02-14T07:54:51;19.20;;;14.70;;
151;SDS011;68;48.792;9.164;2024-02-14T07:57:18;17.20;;;14.35;;
151;SDS011;68;48.792;9.164;2024-02-14T07:59:45;15.30;;;14.02;;
151;SDS011;68;48.792;9.164;2024-02-14T08:02:12;15.07;;;13.85;;
151;SDS011;68;48.792;9.164;2024-02-14T08:04:39;14.20;;;13.25;;
151;SDS011;68;48.792;9.164;2024-02-14T08:07:07;14.00;;;13.30;;
151;SDS011;68;48.792;9.164;2024-02-14T08:09:35;21.45;;;14.45;;
151;SDS011;68;48.792;9.164;2024-02-14T08:12:04;14.70;;;13.95;;
151;SDS011;68;48.792;9.164;2024-02-14T08:14:31;16.08;;;14.20;;
151;SDS011;68;48.792;9.164;2024-02-14T08:16:58;15.00;;;13.93;;
151;SDS011;68;48.792;9.164;2024-02-14T08:19:25;14.77;;;13.70;;
151;SDS011;68;48.792;9.164;2024-02-14T08:21:52;14.45;;;13.75;;
151;SDS011;68;48.792;9.164;2024-02-14T08:24:24;14.90;;;14.10;;
151;SDS011;68;48.792;9.164;2024-02-14T08:26:51;14.27;;;13.57;;
151;SDS011;68;48.792;9.164;2024-02-14T08:29:18;14.10;;;13.40;;
151;SDS011;68;48.792;9.164;2024-02-14T08:31:45;18.65;;;13.82;;
151;SDS011;68;48.792;9.164;2024-02-14T08:34:11;14.52;;;13.73;;
151;SDS011;68;48.792;9.164;2024-02-14T08:36:38;15.10;;;14.30;;
151;SDS011;68;48.792;9.164;2024-02-14T08:39:06;15.95;;;14.88;;
151;SDS011;68;48.792;9.164;2024-02-14T08:41:35;15.23;;;14.43;;
151;SDS011;68;48.792;9.164;2024-02-14T08:44:02;15.45;;;14.00;;
151;SDS011;68;48.792;9.164;2024-02-14T08:46:29;15.20;;;14.40;;
151;SDS011;68;48.792;9.164;2024-02-14T08:48:56;17.38;;;14.05;;
151;SDS011;68;48.792;9.164;2024-02-14T08:51:24;20.35;;;15.55;;
151;SDS011;68;48.792;9.164;2024-02-14T08:53:51;15.65;;;14.85;;
151;SDS011;68;48.792;9.164;2024-02-14T08:56:19;18.50;;;14.93;;
151;SDS011;68;48.792;9.164;2024-02-14T08:58:48;18.40;;;15.90;;
151;SDS011;68;48.792;9.164;2024-02-14T09:01:15;20.27;;;15.20;;
151;SDS011;68;48.792;9.164;2024-02-14T09:03:42;18.02;;;15.55;;
151;SDS011;68;48.792;9.164;2024-02-14T09:06:12;17.17;;;15.00;;
151;SDS011;68;48.792;9.164;2024-02-14T09:08:39;15.60;;;14.73;;
151;SDS011;68;48.792;9.164;2024-02-14T09:11:06;18.17;;;14.73;;
151;SDS011;68;48.792;9.164;2024-02-14T09:13:34;17.35;;;14.80;;
151;SDS011;68;48.792;9.164;2024-02-14T09:16:02;14.38;;;13.68;;
151;SDS011;68;48.792;9.164;2024-02-14T09:18:30;16.17;;;13.35;;
151;SDS011;68;48.792;9.164;2024-02-14T09:20:57;20.50;;;14.43;;
151;SDS011;68;48.792;9.164;2024-02-14T09:23:24;16.38;;;14.27;;
151;SDS011;68;48.792;9.164;2024-02-14T09:25:51;15.13;;;14.15;;
151;SDS011;68;48.792;9.164;2024-02-14T09:28:19;14.70;;;13.95;;
151;SDS011;68;48.792;9.164;2024-02-14T09:30:46;14.27;;;13.57;;
151;SDS011;68;48.792;9.164;2024-02-14T09:33:14;15.05;;;14.25;;
151;SDS011;68;48.792;9.164;2024-02-14T09:35:41;14.98;;;13.52;;
151;SDS011;68;48.792;9.164;2024-02-14T09:38:09;14.45;;;13.68;;
151;SDS011;68;48.792;9.164;2024-02-14T09:40:37;14.00;;;13.30;;
151;SDS011;68;48.792;9.164;2024-02-14T09:43:05;14.55;;;13.85;;
151;SDS011;68;48.792;9.164;2024-02-14T09:45:36;15.98;;;14.00;;
151;SDS011;68;48.792;9.164;2024-02-14T09:48:06;14.85;;;13.70;;
151;SDS011;68;48.792;9.164;2024-02-14T09:50:36;13.90;;;13.20;;
151;SDS011;68;48.792;9.164;2024-02-14T09:53:03;14.10;;;13.40;;
151;SDS011;68;48.792;9.164;2024-02-14T09:55:31;20.88;;;13.15;;
151;SDS011;68;48.792;9.164;2024-02-14T09:57:59;13.30;;;12.60;;
151;SDS011;68;48.792;9.164;2024-02-14T10:00:29;15.45;;;13.02;;
151;SDS011;68;48.792;9.164;2024-02-14T10:02:58;13.63;;;12.93;;
151;SDS011;68;48.792;9.164;2024-02-14T10:05:25;14.20;;;13.00;;
151;SDS011;68;48.792;9.164;2024-02-14T10:07:54;13.65;;;12.93;;
151;SDS011;68;48.792;9.164;2024-02-14T10:10:23;36.85;;;13.43;;
151;SDS011;68;48.792;9.164;2024-02-14T10:12:50;13.35;;;12.65;;
151;SDS011;68;48.792;9.164;2024-02-14T10:15:16;17.25;;;12.50;;
151;SDS011;68;48.792;9.164;2024-02-14T10:17:43;13.50;;;12.80;;
151;SDS011;68;48.792;9.164;2024-02-14T10:20:10;23.35;;;12.80;;
151;SDS011;68;48.792;9.164;2024-02-14T10:22:37;13.60;;;12.90;;
151;SDS011;68;48.792;9.164;2024-02-14T10:25:06;13.15;;;12.45;;
151;SDS011;68;48.792;9.164;2024-02-14T10:27:35;14.27;;;13.25;;
151;SDS011;68;48.792;9.164;2024-02-14T10:30:03;13.75;;;13.05;;
151;SDS011;68;48.792;9.164;2024-02-14T10:32:33;13.23;;;12.52;;
151;SDS011;68;48.792;9.164;2024-02-14T10:35:01;13.20;;;12.50;;
151;SDS011;68;48.792;9.164;2024-02-14T10:37:30;13.38;;;12.23;;
151;SDS011;68;48.792;9.164;2024-02-14T10:39:57;13.40;;;12.70;;
151;SDS011;68;48.792;9.164;2024-02-14T10:42:29;13.40;;;12.70;;
151;SDS011;68;48.792;9.164;2024-02-14T10:44:56;13.45;;;12.75;;
151;SDS011;68;48.792;9.164;2024-02-14T10:47:25;20.33;;;13.43;;
151;SDS011;68;48.792;9.164;2024-02-14T10:49:56;13.60;;;12.90;;
151;SDS011;68;48.792;9.164;2024-02-14T10:52:27;13.65;;;12.95;;
151;SDS011;68;48.792;9.164;2024-02-14T10:54:58;13.30;;;12.60;;
151;SDS011;68;48.792;9.164;2024-02-14T10:57:27;13.60;;;12.90;;
151;SDS011;68;48.792;9.164;2024-02-14T10:59:56;13.80;;;13.10;;
151;SDS011;68;48.792;9.164;2024-02-14T11:02:25;14.05;;;12.90;;
151;SDS011;68;48.792;9.164;2024-02-14T11:04:55;13.68;;;12.98;;
151;SDS011;68;48.792;9.164;2024-02-14T11:07:22;13.20;;;12.50;;
151;SDS011;68;48.792;9.164;2024-02-14T11:09:59;13.90;;;13.20;;
151;SDS011;68;48.792;9.164;2024-02-14T11:12:32;13.50;;;12.80;;
151;SDS011;68;48.792;9.164;2024-02-14T11:14:59;14.18;;;13.48;;
151;SDS011;68;48.792;9.164;2024-02-14T11:17:29;13.73;;;13.02;;
151;SDS011;68;48.792;9.164;2024-02-14T11:19:56;13.73;;;13.02;;
151;SDS011;68;48.792;9.164;2024-02-14T11:22:22;13.60;;;12.90;;
151;SDS011;68;48.792;9.164;2024-02-14T11:24:51;17.55;;;12.43;;
151;SDS011;68;48.792;9.164;2024-02-14T11:27:18;13.55;;;12.85;;
151;SDS011;68;48.792;9.164;2024-02-14T11:29:52;13.50;;;12.80;;
151;SDS011;68;48.792;9.164;2024-02-14T11:32:19;13.00;;;12.30;;
151;SDS011;68;48.792;9.164;2024-02-14T11:34:53;13.77;;;13.07;;
151;SDS011;68;48.792;9.164;2024-02-14T11:37:21;13.55;;;12.85;;
151;SDS011;68;48.792;9.164;2024-02-14T11:39:53;13.05;;;12.35;;
151;SDS011;68;48.792;9.164;2024-02-14T11:42:21;13.15;;;12.45;;
151;SDS011;68;48.792;9.164;2024-02-14T11:44:49;13.10;;;12.40;;
151;SDS011;68;48.792;9.164;2024-02-14T11:47:17;13.10;;;12.40;;
151;SDS011;68;48.792;9.164;2024-02-14T11:49:44;13.25;;;12.25;;
151;SDS011;68;48.792;9.164;2024-02-14T11:52:11;13.80;;;13.10;;
151;SDS011;68;48.792;9.164;2024-02-14T11:54:39;13.55;;;12.85;;
151;SDS011;68;48.792;9.164;2024-02-14T11:57:05;12.82;;;12.13;;
151;SDS011;68;48.792;9.164;2024-02-14T11:59:33;13.20;;;12.50;;
151;SDS011;68;48.792;9.164;2024-02-14T12:02:00;13.60;;;12.90;;
151;SDS011;68;48.792;9.164;2024-02-14T12:04:29;13.35;;;12.65;;
151;SDS011;68;48.792;9.164;2024-02-14T12:06:56;12.95;;;12.25;;
151;SDS011;68;48.792;9.164;2024-02-14T12:09:23;13.45;;;12.75;;
151;SDS011;68;48.792;9.164;2024-02-14T12:11:51;13.45;;;12.75;;
151;SDS011;68;48.792;9.164;2024-02-14T12:14:18;13.63;;;12.93;;
151;SDS011;68;48.792;9.164;2024-02-14T12:16:49;13.48;;;12.77;;
151;SDS011;68;48.792;9.164;2024-02-14T12:19:16;14.65;;;13.10;;
151;SDS011;68;48.792;9.164;2024-02-14T12:21:45;13.25;;;12.55;;
151;SDS011;68;48.792;9.164;2024-02-14T12:24:13;13.60;;;12.90;;
151;SDS011;68;48.792;9.164;2024-02-14T12:26:40;13.52;;;12.82;;
151;SDS011;68;48.792;9.164;2024-02-14T12:29:08;13.73;;;13.02;;
151;SDS011;68;48.792;9.164;2024-02-14T12:31:38;13.30;;;12.60;;
151;SDS011;68;48.792;9.164;2024-02-14T12:34:04;12.90;;;12.20;;
151;SDS011;68;48.792;9.164;2024-02-14T12:36:31;13.27;;;12.57;;
151;SDS011;68;48.792;9.164;2024-02-14T12:39:00;18.75;;;12.30;;
151;SDS011;68;48.792;9.164;2024-02-14T12:41:28;12.90;;;12.20;;
151;SDS011;68;48.792;9.164;2024-02-14T12:43:55;12.27;;;11.68;;
151;SDS011;68;48.792;9.164;2024-02-14T12:46:22;12.55;;;11.93;;
151;SDS011;68;48.792;9.164;2024-02-14T12:48:49;12.77;;;12.07;;
151;SDS011;68;48.792;9.164;2024-02-14T12:51:16;13.82;;;12.85;;
151;SDS011;68;48.792;9.164;2024-02-14T12:53:43;12.70;;;12.00;;
151;SDS011;68;48.792;9.164;2024-02-14T12:56:12;12.38;;;11.77;;
151;SDS011;68;48.792;9.164;2024-02-14T12:58:39;12.45;;;11.85;;
151;SDS011;68;48.792;9.164;2024-02-14T13:01:06;13.10;;;12.40;;
151;SDS011;68;48.792;9.164;2024-02-14T13:03:36;12.77;;;12.07;;
151;SDS011;68;48.792;9.164;2024-02-14T13:06:03;12.75;;;12.05;;
151;SDS011;68;48.792;9.164;2024-02-14T13:08:30;13.23;;;12.52;;
151;SDS011;68;48.792;9.164;2024-02-14T13:10:57;13.05;;;12.35;;
151;SDS011;68;48.792;9.164;2024-02-14T13:13:25;14.43;;;12.48;;
151;SDS011;68;48.792;9.164;2024-02-14T13:15:54;13.55;;;12.85;;
151;SDS011;68;48.792;9.164;2024-02-14T13:18:21;13.02;;;12.32;;
151;SDS011;68;48.792;9.164;2024-02-14T13:20:48;13.40;;;12.70;;
151;SDS011;68;48.792;9.164;2024-02-14T13:23:21;13.20;;;12.50;;
151;SDS011;68;48.792;9.164;2024-02-14T13:25:49;13.30;;;12.60;;
151;SDS011;68;48.792;9.164;2024-02-14T13:28:16;13.48;;;12.77;;
151;SDS011;68;48.792;9.164;2024-02-14T13:30:45;13.13;;;12.43;;
151;SDS011;68;48.792;9.164;2024-02-14T13:35:39;13.20;;;12.50;;
151;SDS011;68;48.792;9.164;2024-02-14T13:38:06;13.70;;;13.00;;
151;SDS011;68;48.792;9.164;2024-02-14T13:40:34;13.30;;;12.60;;
151;SDS011;68;48.792;9.164;2024-02-14T13:43:01;13.43;;;12.73;;
151;SDS011;68;48.792;9.164;2024-02-14T13:45:30;13.30;;;12.60;;
151;SDS011;68;48.792;9.164;2024-02-14T13:48:08;13.20;;;12.50;;
151;SDS011;68;48.792;9.164;2024-02-14T13:50:35;13.10;;;12.40;;
151;SDS011;68;48.792;9.164;2024-02-14T13:53:03;13.52;;;12.82;;
151;SDS011;68;48.792;9.164;2024-02-14T13:55:30;12.50;;;11.90;;
151;SDS011;68;48.792;9.164;2024-02-14T13:57:56;12.90;;;12.20;;
151;SDS011;68;48.792;9.164;2024-02-14T14:00:23;12.90;;;12.20;;
151;SDS011;68;48.792;9.164;2024-02-14T14:02:50;12.90;;;12.20;;
151;SDS011;68;48.792;9.164;2024-02-14T14:05:19;12.52;;;11.90;;
151;SDS011;68;48.792;9.164;2024-02-14T14:07:47;13.02;;;12.32;;
151;SDS011;68;48.792;9.164;2024-02-14T14:10:13;12.50;;;11.90;;
151;SDS011;68;48.792;9.164;2024-02-14T14:12:40;12.77;;;12.07;;
151;SDS011;68;48.792;9.164;2024-02-14T14:15:07;12.40;;;11.80;;
151;SDS011;68;48.792;9.164;2024-02-14T14:17:35;12.90;;;12.20;;
151;SDS011;68;48.792;9.164;2024-02-14T14:20:02;13.10;;;12.40;;
151;SDS011;68;48.792;9.164;2024-02-14T14:22:31;12.82;;;12.13;;
151;SDS011;68;48.792;9.164;2024-02-14T14:24:58;12.30;;;11.70;;
151;SDS011;68;48.792;9.164;2024-02-14T14:27:24;12.45;;;11.85;;
151;SDS011;68;48.792;9.164;2024-02-14T14:29:51;13.20;;;12.50;;
151;SDS011;68;48.792;9.164;2024-02-14T14:32:18;13.18;;;12.48;;
151;SDS011;68;48.792;9.164;2024-02-14T14:34:45;13.05;;;12.30;;
151;SDS011;68;48.792;9.164;2024-02-14T14:37:12;13.02;;;12.32;;
151;SDS011;68;48.792;9.164;2024-02-14T14:39:40;12.50;;;11.90;;
151;SDS011;68;48.792;9.164;2024-02-14T14:42:09;12.80;;;12.10;;
151;SDS011;68;48.792;9.164;2024-02-14T14:44:35;13.00;;;12.30;;
151;SDS011;68;48.792;9.164;2024-02-14T14:47:04;13.10;;;12.40;;
151;SDS011;68;48.792;9.164;2024-02-14T14:49:32;13.00;;;12.30;;
151;SDS011;68;48.792;9.164;2024-02-14T14:52:03;13.00;;;12.30;;
151;SDS011;68;48.792;9.164;2024-02-14T14:54:30;13.40;;;12.70;;
151;SDS011;68;48.792;9.164;2024-02-14T14:56:58;13.60;;;12.90;;
151;SDS011;68;48.792;9.164;2024-02-14T14:59:29;13.70;;;13.00;;
151;SDS011;68;48.792;9.164;2024-02-14T15:01:55;13.85;;;13.15;;
151;SDS011;68;48.792;9.164;2024-02-14T15:04:22;13.30;;;12.60;;
151;SDS011;68;48.792;9.164;2024-02-14T15:06:49;13.27;;;12.57;;
151;SDS011;68;48.792;9.164;2024-02-14T15:09:17;14.00;;;12.95;;
151;SDS011;68;48.792;9.164;2024-02-14T15:11:45;13.50;;;12.80;;
151;SDS011;68;48.792;9.164;2024-02-14T15:14:13;13.45;;;12.40;;
151;SDS011;68;48.792;9.164;2024-02-14T15:16:40;13.05;;;12.35;;
151;SDS011;68;48.792;9.164;2024-02-14T15:19:07;13.77;;;13.07;;
151;SDS011;68;48.792;9.164;2024-02-14T15:21:34;13.27;;;12.57;;
151;SDS011;68;48.792;9.164;2024-02-14T15:24:00;13.30;;;12.60;;
151;SDS011;68;48.792;9.164;2024-02-14T15:26:28;14.30;;;12.55;;
151;SDS011;68;48.792;9.164;2024-02-14T15:29:04;15.02;;;13.32;;
151;SDS011;68;48.792;9.164;2024-02-14T15:31:46;13.55;;;12.85;;
151;SDS011;68;48.792;9.164;2024-02-14T15:34:30;15.18;;;12.40;;